createdAt,value
2023-05-09T00:00:11.318Z,3.70
2023-05-09T00:02:40.614Z,3.50
2023-05-09T00:05:10.228Z,3.17
2023-05-09T00:07:38.251Z,3.80
2023-05-09T00:10:07.292Z,2.93
2023-05-09T00:12:36.270Z,3.40
2023-05-09T00:15:04.692Z,3.33
2023-05-09T00:17:37.072Z,3.40
2023-05-09T00:20:09.222Z,3.60
2023-05-09T00:22:37.384Z,3.70
2023-05-09T00:25:07.012Z,3.40
2023-05-09T00:27:35.344Z,3.93
2023-05-09T00:30:03.872Z,4.23
2023-05-09T00:32:33.646Z,3.67
2023-05-09T00:35:02.054Z,4.53
2023-05-09T00:37:31.101Z,3.40
2023-05-09T00:39:59.316Z,4.23
2023-05-09T00:42:27.979Z,4.40
2023-05-09T00:44:56.333Z,4.50
2023-05-09T00:47:25.474Z,4.33
2023-05-09T00:49:55.171Z,4.40
2023-05-09T00:52:25.946Z,4.27
2023-05-09T00:54:54.491Z,4.43
2023-05-09T00:57:24.236Z,4.70
2023-05-09T00:59:52.274Z,4.40
2023-05-09T01:02:20.646Z,4.30
2023-05-09T01:04:49.277Z,4.20
2023-05-09T01:07:26.081Z,4.93
2023-05-09T01:10:02.278Z,3.93
2023-05-09T01:12:39.047Z,4.90
2023-05-09T01:15:13.896Z,4.67
2023-05-09T01:17:51.789Z,4.10
2023-05-09T01:20:24.678Z,4.07
2023-05-09T01:23:05.744Z,5.57
2023-05-09T01:25:51.231Z,4.67
2023-05-09T01:28:35.728Z,4.07
2023-05-09T01:31:08.359Z,4.67
2023-05-09T01:33:41.683Z,4.00
2023-05-09T01:36:15.527Z,3.60
2023-05-09T01:38:45.605Z,4.60
2023-05-09T01:41:18.144Z,4.40
2023-05-09T01:43:50.730Z,4.10
2023-05-09T01:46:23.275Z,4.40
2023-05-09T01:48:52.315Z,4.20
2023-05-09T01:51:22.466Z,4.83
2023-05-09T01:53:52.901Z,4.43
2023-05-09T01:56:23.967Z,3.93
2023-05-09T01:58:57.725Z,4.70
2023-05-09T02:01:29.226Z,3.97
2023-05-09T02:03:59.145Z,4.70
2023-05-09T02:06:29.989Z,4.43
2023-05-09T02:08:59.378Z,4.80
2023-05-09T02:11:27.935Z,4.33
2023-05-09T02:13:56.392Z,4.63
2023-05-09T02:16:24.516Z,4.53
2023-05-09T02:18:54.219Z,4.60
2023-05-09T02:21:24.212Z,4.57
2023-05-09T02:23:55.228Z,6.00
2023-05-09T02:26:23.926Z,4.97
2023-05-09T02:28:52.789Z,4.37
2023-05-09T02:31:23.736Z,4.40
2023-05-09T02:33:55.626Z,4.37
2023-05-09T02:36:25.631Z,4.13
2023-05-09T02:38:55.984Z,4.27
2023-05-09T02:41:24.026Z,4.90
2023-05-09T02:43:51.928Z,4.93
2023-05-09T02:46:20.337Z,5.13
2023-05-09T02:48:49.476Z,5.03
2023-05-09T02:51:19.168Z,4.13
2023-05-09T02:53:47.264Z,4.83
2023-05-09T02:56:15.761Z,4.33
2023-05-09T02:58:43.982Z,5.03
2023-05-09T03:01:12.597Z,5.73
2023-05-09T03:03:41.179Z,4.20
2023-05-09T03:06:09.675Z,5.17
2023-05-09T03:08:39.266Z,4.07
2023-05-09T03:11:07.466Z,5.77
2023-05-09T03:13:35.841Z,6.33
2023-05-09T03:16:04.286Z,5.73
2023-05-09T03:18:32.829Z,6.17
2023-05-09T03:21:00.870Z,5.67
2023-05-09T03:23:29.237Z,6.03
2023-05-09T03:25:58.686Z,6.00
2023-05-09T03:28:26.889Z,6.83
2023-05-09T03:30:54.996Z,6.60
2023-05-09T03:33:23.601Z,6.00
2023-05-09T03:35:51.906Z,7.40
2023-05-09T03:38:20.388Z,7.00
2023-05-09T03:40:48.578Z,5.60
2023-05-09T03:43:19.102Z,6.53
2023-05-09T03:45:47.332Z,6.13
2023-05-09T03:48:15.343Z,5.80
2023-05-09T03:50:43.559Z,6.20
2023-05-09T03:53:13.427Z,6.67
2023-05-09T03:55:41.467Z,6.37
2023-05-09T03:58:09.446Z,7.40
2023-05-09T04:00:39.226Z,6.13
2023-05-09T04:03:07.680Z,5.73
2023-05-09T04:05:36.375Z,6.47
2023-05-09T04:08:04.656Z,6.03
2023-05-09T04:10:33.232Z,5.87
2023-05-09T04:13:01.595Z,5.87
2023-05-09T04:15:29.952Z,5.87
2023-05-09T04:17:59.819Z,5.63
2023-05-09T04:20:28.029Z,5.00
2023-05-09T04:22:56.876Z,4.80
2023-05-09T04:25:25.227Z,5.37
2023-05-09T04:27:53.691Z,5.40
2023-05-09T04:30:22.812Z,5.43
2023-05-09T04:32:51.279Z,5.10
2023-05-09T04:35:21.818Z,3.80
2023-05-09T04:37:50.943Z,3.23
2023-05-09T04:40:19.342Z,3.70
2023-05-09T04:42:48.564Z,3.43
2023-05-09T04:45:16.835Z,3.80
2023-05-09T04:47:46.711Z,3.33
2023-05-09T04:50:14.906Z,2.37
2023-05-09T04:52:44.518Z,2.40
2023-05-09T04:55:12.872Z,2.23
2023-05-09T04:57:41.341Z,1.80
2023-05-09T05:00:11.773Z,1.80
2023-05-09T05:02:42.762Z,2.70
2023-05-09T05:05:12.464Z,1.60
2023-05-09T05:07:55.644Z,2.43
2023-05-09T05:10:23.674Z,2.00
2023-05-09T05:12:52.358Z,1.80
2023-05-09T05:15:20.900Z,2.03
2023-05-09T05:17:50.029Z,2.03
2023-05-09T05:20:18.393Z,1.70
2023-05-09T05:22:46.878Z,1.50
2023-05-09T05:25:17.947Z,1.40
2023-05-09T05:27:46.165Z,1.63
2023-05-09T05:30:15.997Z,2.00
2023-05-09T05:32:44.268Z,1.93
2023-05-09T05:35:14.332Z,1.50
2023-05-09T05:37:49.036Z,1.70
2023-05-09T05:40:18.922Z,1.90
2023-05-09T05:42:50.517Z,1.50
2023-05-09T05:45:19.896Z,2.00
2023-05-09T05:47:48.068Z,1.67
2023-05-09T05:50:16.737Z,1.67
2023-05-09T05:52:44.734Z,2.20
2023-05-09T05:55:13.156Z,3.43
2023-05-09T05:57:42.748Z,2.57
2023-05-09T06:00:12.356Z,1.70
2023-05-09T06:02:42.603Z,1.50
2023-05-09T06:05:11.630Z,1.53
2023-05-09T06:07:41.273Z,1.93
2023-05-09T06:10:10.237Z,1.50
2023-05-09T06:12:38.216Z,1.60
2023-05-09T06:15:09.184Z,0.90
2023-05-09T06:17:37.722Z,0.90
2023-05-09T06:20:07.631Z,0.93
2023-05-09T06:22:35.982Z,0.90
2023-05-09T06:25:04.599Z,1.00
2023-05-09T06:27:33.073Z,1.20
2023-05-09T06:30:04.303Z,0.70
2023-05-09T06:32:38.321Z,0.80
2023-05-09T06:35:07.916Z,1.10
2023-05-09T06:37:36.341Z,0.80
2023-05-09T06:40:06.426Z,0.70
2023-05-09T06:42:34.662Z,0.60
2023-05-09T06:45:02.984Z,0.77
2023-05-09T06:47:31.244Z,0.80
2023-05-09T06:50:00.774Z,0.70
2023-05-09T06:52:30.785Z,0.90
2023-05-09T06:54:58.931Z,1.10
2023-05-09T06:57:27.488Z,1.03
2023-05-09T06:59:56.138Z,1.27
2023-05-09T07:02:25.890Z,1.70
2023-05-09T07:04:54.737Z,2.00
2023-05-09T07:07:25.043Z,1.37
2023-05-09T07:10:00.690Z,1.60
2023-05-09T07:12:36.110Z,2.53
2023-05-09T07:15:04.204Z,3.93
2023-05-09T07:17:32.349Z,3.40
2023-05-09T07:20:00.664Z,2.10
2023-05-09T07:22:31.757Z,1.70
2023-05-09T07:25:00.931Z,1.20
2023-05-09T07:27:33.753Z,1.70
2023-05-09T07:30:03.221Z,1.27
2023-05-09T07:32:31.454Z,1.13
2023-05-09T07:35:00.775Z,1.47
2023-05-09T07:37:30.492Z,1.53
2023-05-09T07:40:00.958Z,1.10
2023-05-09T07:42:30.588Z,1.10
2023-05-09T07:44:59.245Z,2.47
2023-05-09T07:47:27.463Z,1.20
2023-05-09T07:49:55.929Z,1.20
2023-05-09T07:52:24.124Z,1.50
2023-05-09T07:54:54.981Z,1.30
2023-05-09T07:57:24.541Z,1.20
2023-05-09T07:59:54.021Z,1.20
2023-05-09T08:02:22.457Z,1.40
2023-05-09T08:04:51.521Z,1.40
2023-05-09T08:07:20.535Z,0.70
2023-05-09T08:09:48.651Z,1.30
2023-05-09T08:12:18.601Z,1.40
2023-05-09T08:14:47.123Z,0.80
2023-05-09T08:17:18.236Z,0.87
2023-05-09T08:19:46.370Z,0.93
2023-05-09T08:22:20.532Z,0.80
2023-05-09T08:24:49.173Z,1.10
2023-05-09T08:27:19.196Z,1.00
2023-05-09T08:29:47.961Z,1.20
2023-05-09T08:32:16.126Z,1.10
2023-05-09T08:34:46.818Z,1.00
2023-05-09T08:37:15.743Z,1.10
2023-05-09T08:39:44.384Z,0.90
2023-05-09T08:42:12.594Z,1.10
2023-05-09T08:44:42.310Z,1.00
2023-05-09T08:47:10.990Z,1.00
2023-05-09T08:49:39.614Z,0.90
2023-05-09T08:52:09.007Z,0.90
2023-05-09T08:54:37.816Z,1.20
2023-05-09T08:57:07.704Z,1.40
2023-05-09T08:59:37.636Z,1.13
2023-05-09T09:02:13.983Z,0.90
2023-05-09T09:04:42.951Z,1.07
2023-05-09T09:07:12.424Z,1.10
2023-05-09T09:09:46.472Z,1.13
2023-05-09T09:12:17.415Z,1.20
2023-05-09T09:14:49.955Z,1.00
2023-05-09T09:17:21.502Z,0.97
2023-05-09T09:19:51.374Z,1.37
2023-05-09T09:22:23.029Z,1.17
2023-05-09T09:24:52.456Z,1.10
2023-05-09T09:27:23.111Z,1.60
2023-05-09T09:29:51.348Z,1.10
2023-05-09T09:32:21.625Z,1.17
2023-05-09T09:34:53.232Z,1.30
2023-05-09T09:37:24.978Z,1.20
2023-05-09T09:39:57.197Z,1.40
2023-05-09T09:42:25.358Z,1.20
2023-05-09T09:44:58.711Z,1.20
2023-05-09T09:47:34.158Z,1.77
2023-05-09T09:50:12.366Z,1.20
2023-05-09T09:52:45.431Z,1.50
2023-05-09T09:55:16.264Z,1.03
2023-05-09T09:57:46.714Z,1.33
2023-05-09T10:00:18.380Z,1.83
2023-05-09T10:02:53.246Z,1.30
2023-05-09T10:05:22.978Z,1.53
2023-05-09T10:07:56.981Z,1.57
2023-05-09T10:10:27.831Z,1.27
2023-05-09T10:12:58.807Z,1.37
2023-05-09T10:15:30.049Z,1.30
2023-05-09T10:18:04.918Z,1.50
2023-05-09T10:20:33.393Z,1.33
2023-05-09T10:23:04.570Z,1.50
2023-05-09T10:25:41.027Z,1.30
2023-05-09T10:28:13.423Z,1.40
2023-05-09T10:30:51.966Z,1.77
2023-05-09T10:33:28.837Z,1.10
2023-05-09T10:36:02.223Z,1.43
2023-05-09T10:38:32.915Z,1.77
2023-05-09T10:41:01.913Z,1.93
2023-05-09T10:43:32.253Z,1.90
2023-05-09T10:46:00.939Z,1.47
2023-05-09T10:48:30.839Z,2.00
2023-05-09T10:50:59.044Z,2.47
2023-05-09T10:53:42.485Z,2.10
2023-05-09T10:56:11.011Z,2.00
2023-05-09T10:58:40.985Z,1.80
2023-05-09T11:01:11.961Z,2.50
2023-05-09T11:03:59.242Z,2.20
2023-05-09T11:06:51.685Z,2.20
2023-05-09T11:09:34.518Z,2.20
2023-05-09T11:12:11.513Z,2.20
2023-05-09T11:14:43.288Z,1.87
2023-05-09T11:17:13.445Z,3.00
2023-05-09T11:20:05.832Z,2.87
2023-05-09T11:22:41.608Z,2.13
2023-05-09T11:25:13.393Z,1.70
2023-05-09T11:27:44.172Z,2.33
2023-05-09T11:30:14.719Z,2.97
2023-05-09T11:32:45.890Z,2.17
2023-05-09T11:35:18.136Z,2.10
2023-05-09T11:37:48.469Z,3.00
2023-05-09T11:40:19.159Z,2.47
2023-05-09T11:42:50.190Z,2.90
2023-05-09T11:45:19.160Z,3.47
2023-05-09T11:47:48.768Z,3.00
2023-05-09T11:50:20.144Z,2.50
2023-05-09T11:52:49.053Z,2.53
2023-05-09T11:55:22.219Z,2.07
2023-05-09T11:57:54.615Z,2.67
2023-05-09T12:00:24.840Z,2.80
2023-05-09T12:02:54.965Z,2.03
2023-05-09T12:05:24.806Z,2.40
2023-05-09T12:07:53.863Z,2.43
2023-05-09T12:10:23.957Z,2.70
2023-05-09T12:12:55.864Z,2.93
2023-05-09T12:15:25.227Z,3.60
2023-05-09T12:18:03.597Z,2.27
2023-05-09T12:20:45.166Z,2.90
2023-05-09T12:23:14.672Z,2.50
2023-05-09T12:25:50.771Z,2.50
2023-05-09T12:28:19.494Z,2.30
2023-05-09T12:30:47.820Z,2.70
2023-05-09T12:33:16.750Z,2.33
2023-05-09T12:35:48.813Z,2.00
2023-05-09T12:38:23.541Z,2.00
2023-05-09T12:41:03.643Z,2.40
2023-05-09T12:43:33.385Z,1.97
2023-05-09T12:46:03.775Z,2.53
2023-05-09T12:48:39.098Z,2.53
2023-05-09T12:51:09.460Z,2.60
2023-05-09T12:53:40.519Z,2.13
2023-05-09T12:56:14.866Z,1.40
2023-05-09T12:58:51.260Z,2.27
2023-05-09T13:01:19.835Z,2.30
2023-05-09T13:03:53.513Z,2.00
2023-05-09T13:06:24.319Z,2.57
2023-05-09T13:09:01.592Z,2.70
2023-05-09T13:11:30.956Z,2.90
2023-05-09T13:13:59.627Z,2.47
2023-05-09T13:16:28.396Z,2.53
2023-05-09T13:18:56.803Z,2.80
2023-05-09T13:21:26.446Z,3.10
2023-05-09T13:23:54.598Z,3.23
2023-05-09T13:26:23.107Z,2.30
2023-05-09T13:28:52.029Z,2.70
2023-05-09T13:31:20.243Z,3.53
2023-05-09T13:33:50.934Z,3.47
2023-05-09T13:36:20.383Z,3.00
2023-05-09T13:38:50.253Z,3.10
2023-05-09T13:41:23.832Z,3.03
2023-05-09T13:43:52.915Z,2.00
2023-05-09T13:46:21.199Z,2.70
2023-05-09T13:48:49.246Z,2.50
2023-05-09T13:51:17.617Z,4.00
2023-05-09T13:53:45.772Z,2.40
2023-05-09T13:56:15.514Z,2.60
2023-05-09T13:58:44.210Z,2.33
2023-05-09T14:01:12.243Z,2.43
2023-05-09T14:03:41.028Z,2.90
2023-05-09T14:06:10.754Z,3.10
2023-05-09T14:08:39.833Z,2.83
2023-05-09T14:11:09.009Z,2.30
2023-05-09T14:13:38.874Z,2.70
2023-05-09T14:16:07.744Z,2.40
2023-05-09T14:18:36.068Z,2.20
2023-05-09T14:21:04.263Z,2.23
2023-05-09T14:23:32.366Z,2.37
2023-05-09T14:26:00.333Z,1.60
2023-05-09T14:28:28.850Z,1.40
2023-05-09T14:30:58.668Z,1.63
2023-05-09T14:33:27.670Z,1.40
2023-05-09T14:35:56.644Z,2.37
2023-05-09T14:38:24.561Z,1.40
2023-05-09T14:40:53.595Z,1.67
2023-05-09T14:43:22.630Z,1.97
2023-05-09T14:45:51.259Z,1.57
2023-05-09T14:48:21.163Z,1.10
2023-05-09T14:50:50.110Z,1.63
2023-05-09T14:53:19.110Z,1.90
2023-05-09T14:55:47.336Z,1.30
2023-05-09T14:58:16.305Z,1.80
2023-05-09T15:00:44.448Z,1.90
2023-05-09T15:03:12.658Z,1.17
2023-05-09T15:05:44.072Z,1.80
2023-05-09T15:08:12.524Z,1.80
2023-05-09T15:10:41.148Z,2.30
2023-05-09T15:13:11.718Z,1.67
2023-05-09T15:15:40.709Z,1.47
2023-05-09T15:18:10.426Z,1.97
2023-05-09T15:20:39.696Z,1.43
2023-05-09T15:23:09.573Z,1.60
2023-05-09T15:25:38.029Z,1.47
2023-05-09T15:28:08.991Z,1.80
2023-05-09T15:30:39.284Z,1.60
2023-05-09T15:33:07.570Z,1.77
2023-05-09T15:35:35.811Z,1.63
2023-05-09T15:38:04.688Z,1.80
2023-05-09T15:40:34.257Z,1.80
2023-05-09T15:43:08.208Z,1.27
2023-05-09T15:45:38.021Z,1.50
2023-05-09T15:48:07.757Z,1.80
2023-05-09T15:50:36.142Z,2.33
2023-05-09T15:53:04.115Z,2.10
2023-05-09T15:55:34.934Z,2.03
2023-05-09T15:58:03.174Z,2.17
2023-05-09T16:00:31.739Z,1.83
2023-05-09T16:03:00.138Z,1.50
2023-05-09T16:05:28.581Z,1.20
2023-05-09T16:07:56.685Z,2.13
2023-05-09T16:10:31.677Z,1.60
2023-05-09T16:13:01.770Z,2.13
2023-05-09T16:15:31.754Z,1.70
2023-05-09T16:17:59.990Z,2.20
2023-05-09T16:20:30.074Z,1.60
2023-05-09T16:22:58.046Z,2.07
2023-05-09T16:25:26.278Z,2.00
2023-05-09T16:27:55.613Z,1.70
2023-05-09T16:30:25.579Z,1.43
2023-05-09T16:32:54.521Z,1.73
2023-05-09T16:35:23.241Z,1.73
2023-05-09T16:37:53.350Z,1.50
2023-05-09T16:40:23.093Z,1.77
2023-05-09T16:42:51.114Z,1.30
2023-05-09T16:45:19.701Z,1.87
2023-05-09T16:47:49.434Z,1.73
2023-05-09T16:50:19.905Z,2.20
2023-05-09T16:52:48.250Z,2.20
2023-05-09T16:55:16.353Z,1.93
2023-05-09T16:57:46.711Z,2.20
2023-05-09T17:00:15.851Z,1.73
2023-05-09T17:02:45.480Z,1.30
2023-05-09T17:05:24.707Z,2.97
2023-05-09T17:07:52.858Z,2.23
2023-05-09T17:10:21.772Z,2.53
2023-05-09T17:12:50.674Z,2.03
2023-05-09T17:15:21.345Z,1.80
2023-05-09T17:17:49.363Z,2.17
2023-05-09T17:20:19.417Z,2.87
2023-05-09T17:22:47.259Z,2.10
2023-05-09T17:25:15.253Z,2.10
2023-05-09T17:27:43.704Z,2.03
2023-05-09T17:30:13.157Z,2.10
2023-05-09T17:32:45.182Z,1.83
2023-05-09T17:35:13.932Z,2.50
2023-05-09T17:37:46.155Z,2.50
2023-05-09T17:40:15.319Z,3.43
2023-05-09T17:42:43.852Z,3.10
2023-05-09T17:45:13.324Z,2.77
2023-05-09T17:47:42.696Z,2.87
2023-05-09T17:50:14.773Z,2.63
2023-05-09T17:52:44.791Z,3.37
2023-05-09T17:55:13.413Z,2.70
2023-05-09T17:57:43.233Z,2.67
2023-05-09T18:00:13.087Z,2.07
2023-05-09T18:02:41.902Z,2.70
2023-05-09T18:05:11.304Z,2.63
2023-05-09T18:07:41.188Z,2.37
2023-05-09T18:10:13.699Z,2.73
2023-05-09T18:12:42.404Z,2.40
2023-05-09T18:15:12.074Z,2.87
2023-05-09T18:17:40.934Z,2.93
2023-05-09T18:20:12.156Z,2.43
2023-05-09T18:22:43.032Z,1.87
2023-05-09T18:25:13.674Z,2.07
2023-05-09T18:27:46.962Z,2.07
2023-05-09T18:30:16.683Z,1.70
2023-05-09T18:32:47.111Z,1.80
2023-05-09T18:35:16.014Z,1.87
2023-05-09T18:37:44.099Z,2.27
2023-05-09T18:40:16.369Z,2.03
2023-05-09T18:42:46.322Z,1.90
2023-05-09T18:45:14.598Z,1.90
2023-05-09T18:47:42.995Z,1.93
2023-05-09T18:50:15.197Z,2.53
2023-05-09T18:52:44.681Z,1.97
2023-05-09T18:55:15.131Z,2.57
2023-05-09T18:57:43.275Z,3.93
2023-05-09T19:00:12.991Z,3.70
2023-05-09T19:02:41.222Z,3.30
2023-05-09T19:05:10.948Z,3.17
2023-05-09T19:07:41.400Z,2.87
2023-05-09T19:10:10.528Z,3.27
2023-05-09T19:12:41.887Z,3.10
2023-05-09T19:15:12.814Z,3.23
2023-05-09T19:17:40.748Z,2.90
2023-05-09T19:20:10.252Z,3.30
2023-05-09T19:22:41.624Z,3.17
2023-05-09T19:25:10.593Z,4.30
2023-05-09T19:27:43.462Z,4.07
2023-05-09T19:30:13.144Z,4.40
2023-05-09T19:32:41.960Z,4.40
2023-05-09T19:35:11.577Z,4.43
2023-05-09T19:37:39.666Z,3.50
2023-05-09T19:40:09.318Z,3.87
2023-05-09T19:42:38.108Z,3.73
2023-05-09T19:45:09.245Z,2.63
2023-05-09T19:47:37.294Z,2.73
2023-05-09T19:50:06.353Z,1.90
2023-05-09T19:52:36.559Z,2.70
2023-05-09T19:55:06.931Z,2.60
2023-05-09T19:57:35.013Z,2.27
2023-05-09T20:00:03.336Z,2.80
2023-05-09T20:02:33.184Z,2.97
2023-05-09T20:05:01.844Z,3.13
2023-05-09T20:07:29.907Z,3.20
2023-05-09T20:09:59.570Z,3.57
2023-05-09T20:12:30.088Z,2.23
2023-05-09T20:14:58.767Z,3.67
2023-05-09T20:17:26.712Z,3.93
2023-05-09T20:19:57.830Z,3.13
2023-05-09T20:22:26.395Z,3.90
2023-05-09T20:24:54.805Z,4.40
2023-05-09T20:27:23.678Z,4.60
2023-05-09T20:29:51.811Z,3.20
2023-05-09T20:32:19.677Z,4.20
2023-05-09T20:34:47.803Z,4.13
2023-05-09T20:37:17.295Z,4.23
2023-05-09T20:39:45.552Z,3.60
2023-05-09T20:42:13.801Z,3.70
2023-05-09T20:44:43.800Z,4.53
2023-05-09T20:47:11.898Z,3.33
2023-05-09T20:49:40.233Z,5.30
2023-05-09T20:52:08.379Z,5.03
2023-05-09T20:54:37.774Z,4.03
2023-05-09T20:57:05.853Z,3.90
2023-05-09T20:59:33.950Z,5.40
2023-05-09T21:02:04.321Z,4.00
2023-05-09T21:04:32.358Z,5.50
2023-05-09T21:07:00.610Z,5.47
2023-05-09T21:09:28.513Z,5.47
2023-05-09T21:12:04.003Z,6.47
2023-05-09T21:14:32.528Z,6.03
2023-05-09T21:17:00.668Z,6.70
2023-05-09T21:19:30.578Z,6.40
2023-05-09T21:21:59.968Z,6.70
2023-05-09T21:24:27.984Z,6.13
2023-05-09T21:26:57.508Z,7.07
2023-05-09T21:29:25.957Z,6.47
2023-05-09T21:31:55.165Z,6.67
2023-05-09T21:34:24.612Z,7.13
2023-05-09T21:36:53.068Z,6.87
2023-05-09T21:39:21.593Z,8.00
2023-05-09T21:41:49.890Z,6.63
2023-05-09T21:44:22.594Z,7.77
2023-05-09T21:46:51.354Z,6.53
2023-05-09T21:49:21.715Z,5.97
2023-05-09T21:51:49.773Z,5.50
2023-05-09T21:54:18.202Z,6.03
2023-05-09T21:56:46.414Z,6.40
2023-05-09T21:59:14.817Z,6.73
2023-05-09T22:01:45.885Z,6.27
2023-05-09T22:04:14.469Z,5.10
2023-05-09T22:06:44.095Z,6.20
2023-05-09T22:09:12.121Z,5.03
2023-05-09T22:11:40.403Z,5.40
2023-05-09T22:14:10.442Z,4.93
2023-05-09T22:16:38.729Z,4.67
2023-05-09T22:19:09.215Z,5.40
2023-05-09T22:21:37.527Z,3.83
2023-05-09T22:24:07.681Z,4.63
2023-05-09T22:26:37.293Z,5.70
2023-05-09T22:29:07.667Z,5.90
2023-05-09T22:31:35.988Z,5.13
2023-05-09T22:34:05.414Z,7.13
2023-05-09T22:36:34.804Z,5.70
2023-05-09T22:39:03.514Z,6.30
2023-05-09T22:41:31.669Z,6.73
2023-05-09T22:43:59.640Z,6.87
2023-05-09T22:46:27.836Z,5.87
2023-05-09T22:48:57.580Z,6.53
2023-05-09T22:51:25.792Z,6.90
2023-05-09T22:53:55.159Z,7.43
2023-05-09T22:56:23.650Z,6.60
2023-05-09T22:58:51.989Z,6.20
2023-05-09T23:01:20.702Z,5.57
2023-05-09T23:03:48.879Z,6.60
2023-05-09T23:06:16.887Z,6.33
2023-05-09T23:08:45.542Z,5.20
2023-05-09T23:11:15.657Z,6.13
2023-05-09T23:13:43.846Z,5.83
2023-05-09T23:16:11.878Z,5.17
2023-05-09T23:18:41.185Z,5.63
2023-05-09T23:21:09.955Z,6.07
2023-05-09T23:23:38.104Z,5.90
2023-05-09T23:26:06.226Z,5.57
2023-05-09T23:28:35.915Z,5.83
2023-05-09T23:31:05.638Z,4.37
2023-05-09T23:33:34.024Z,5.50
2023-05-09T23:36:02.422Z,5.07
2023-05-09T23:38:30.695Z,5.70
2023-05-09T23:41:00.585Z,6.33
2023-05-09T23:43:28.929Z,6.17
2023-05-09T23:45:58.530Z,5.47
2023-05-09T23:48:27.567Z,7.50
2023-05-09T23:50:55.620Z,7.77
2023-05-09T23:53:23.637Z,5.63
2023-05-09T23:55:52.138Z,7.80
2023-05-09T23:58:20.286Z,8.07
